createdAt,value
2019-03-30T00:04:00.431Z,91.20
2019-03-30T00:06:29.756Z,130.23
2019-03-30T00:08:59.095Z,111.80
2019-03-30T00:11:28.422Z,88.60
2019-03-30T00:13:57.746Z,87.57
2019-03-30T00:16:27.087Z,110.03
2019-03-30T00:18:56.417Z,87.87
2019-03-30T00:21:25.753Z,150.83
2019-03-30T00:23:55.079Z,86.03
2019-03-30T00:26:24.423Z,84.00
2019-03-30T00:28:53.751Z,75.37
2019-03-30T00:31:23.088Z,81.10
2019-03-30T00:33:52.413Z,99.57
2019-03-30T00:36:22.057Z,80.53
2019-03-30T00:38:51.384Z,72.40
2019-03-30T00:41:20.723Z,68.97
2019-03-30T00:43:50.058Z,56.60
2019-03-30T00:46:19.398Z,75.03
2019-03-30T00:48:48.730Z,71.13
2019-03-30T00:51:18.065Z,106.37
2019-03-30T00:53:47.405Z,106.40
2019-03-30T00:56:16.741Z,112.17
2019-03-30T00:58:46.171Z,74.87
2019-03-30T01:04:10.911Z,75.33
2019-03-30T01:06:40.242Z,80.73
2019-03-30T01:11:50.198Z,77.17
2019-03-30T01:14:19.539Z,72.73
2019-03-30T01:16:48.867Z,80.77
2019-03-30T01:19:18.207Z,96.40
2019-03-30T01:21:47.534Z,68.93
2019-03-30T01:24:16.875Z,73.90
2019-03-30T01:26:46.206Z,61.13
2019-03-30T01:29:15.864Z,63.83
2019-03-30T01:31:45.203Z,66.83
2019-03-30T01:34:14.878Z,81.87
2019-03-30T01:36:44.217Z,76.50
2019-03-30T01:39:13.545Z,73.17
2019-03-30T01:41:42.880Z,74.80
2019-03-30T01:44:12.208Z,75.30
2019-03-30T01:46:41.890Z,72.70
2019-03-30T01:49:11.223Z,86.77
2019-03-30T01:51:40.798Z,74.17
2019-03-30T01:54:10.129Z,79.20
2019-03-30T01:56:39.464Z,73.13
2019-03-30T01:59:10.498Z,75.87
2019-03-30T02:01:39.842Z,74.40
2019-03-30T02:04:09.172Z,68.23
2019-03-30T02:07:09.763Z,81.80
2019-03-30T02:09:39.083Z,62.87
2019-03-30T02:12:08.416Z,74.63
2019-03-30T02:14:37.756Z,71.20
2019-03-30T02:17:07.087Z,75.30
2019-03-30T02:19:36.492Z,73.67
2019-03-30T02:22:05.824Z,68.30
2019-03-30T02:24:35.163Z,74.83
2019-03-30T02:27:04.490Z,78.67
2019-03-30T02:29:53.248Z,82.97
2019-03-30T02:32:22.626Z,72.13
2019-03-30T02:34:51.974Z,79.77
2019-03-30T02:37:21.301Z,69.50
2019-03-30T02:39:50.629Z,71.87
2019-03-30T02:42:19.971Z,62.53
2019-03-30T02:44:49.294Z,77.93
2019-03-30T02:47:18.635Z,76.50
2019-03-30T02:49:47.970Z,81.10
2019-03-30T02:52:17.291Z,72.97
2019-03-30T02:54:46.965Z,71.13
2019-03-30T02:57:16.291Z,75.77
2019-03-30T02:59:45.632Z,66.03
2019-03-30T03:02:14.960Z,66.80
2019-03-30T03:04:44.531Z,74.47
2019-03-30T03:07:13.869Z,85.40
2019-03-30T03:09:43.206Z,80.77
2019-03-30T03:12:12.579Z,81.80
2019-03-30T03:14:41.876Z,73.60
2019-03-30T03:17:11.213Z,81.03
2019-03-30T03:19:40.549Z,72.90
2019-03-30T03:22:09.910Z,68.20
2019-03-30T03:24:39.593Z,86.17
2019-03-30T03:27:08.922Z,76.07
2019-03-30T03:29:38.252Z,63.20
2019-03-30T03:32:07.594Z,75.00
2019-03-30T03:34:36.933Z,64.27
2019-03-30T03:37:06.287Z,71.45
2019-03-30T03:39:37.239Z,74.87
2019-03-30T03:42:06.888Z,72.33
2019-03-30T03:44:36.218Z,80.17
2019-03-30T03:47:05.554Z,87.93
2019-03-30T03:49:34.913Z,72.27
2019-03-30T03:52:15.294Z,79.43
2019-03-30T03:54:44.701Z,67.73
2019-03-30T03:57:25.449Z,80.00
2019-03-30T04:12:12.653Z,77.50
2019-03-30T04:17:44.098Z,69.23
2019-03-30T04:20:53.363Z,67.27
2019-03-30T04:23:22.819Z,68.70
2019-03-30T04:25:52.087Z,66.70
2019-03-30T04:28:21.437Z,72.57
2019-03-30T04:31:09.862Z,75.75
2019-03-30T04:33:58.543Z,74.73
2019-03-30T04:36:27.871Z,66.13
2019-03-30T04:38:57.203Z,73.43
2019-03-30T04:41:26.548Z,70.10
2019-03-30T04:43:55.985Z,59.40
2019-03-30T04:46:25.284Z,69.60
2019-03-30T04:48:54.624Z,81.33
2019-03-30T04:51:23.961Z,69.17
2019-03-30T04:53:53.308Z,57.70
2019-03-30T04:56:42.219Z,75.67
2019-03-30T04:59:11.633Z,70.10
2019-03-30T05:01:46.365Z,61.95
2019-03-30T05:04:15.711Z,66.80
2019-03-30T05:06:45.043Z,67.63
2019-03-30T05:09:14.429Z,66.77
2019-03-30T05:11:43.709Z,57.03
2019-03-30T05:14:13.035Z,71.87
2019-03-30T05:16:42.363Z,70.93
2019-03-30T05:19:11.709Z,66.87
2019-03-30T05:21:41.039Z,70.93
2019-03-30T05:24:10.751Z,71.77
2019-03-30T05:26:40.102Z,64.15
2019-03-30T05:29:09.443Z,67.60
2019-03-30T05:31:38.794Z,57.00
2019-03-30T05:34:08.143Z,74.53
2019-03-30T05:36:37.482Z,61.73
2019-03-30T05:39:06.883Z,68.87
2019-03-30T05:41:36.239Z,64.27
2019-03-30T05:44:05.582Z,63.65
2019-03-30T05:46:34.905Z,70.40
2019-03-30T05:49:04.251Z,67.23
2019-03-30T05:51:33.593Z,58.85
2019-03-30T05:54:02.931Z,70.50
2019-03-30T05:56:32.344Z,61.98
2019-03-30T05:59:01.671Z,60.23
2019-03-30T06:01:31.000Z,67.60
2019-03-30T06:04:06.186Z,64.37
2019-03-30T06:06:35.584Z,69.23
2019-03-30T06:09:24.018Z,62.43
2019-03-30T06:11:53.354Z,60.13
2019-03-30T06:14:22.683Z,57.93
2019-03-30T06:16:52.024Z,59.90
2019-03-30T06:19:21.353Z,74.27
2019-03-30T06:21:50.945Z,63.20
2019-03-30T06:24:20.283Z,67.10
2019-03-30T06:26:49.612Z,56.70
2019-03-30T06:29:18.947Z,76.53
2019-03-30T06:31:48.297Z,60.27
2019-03-30T06:34:17.618Z,58.20
2019-03-30T06:37:06.303Z,71.53
2019-03-30T06:39:37.202Z,57.10
2019-03-30T06:42:12.293Z,56.13
2019-03-30T06:44:41.618Z,63.30
2019-03-30T06:47:10.946Z,67.23
2019-03-30T06:49:40.288Z,52.00
2019-03-30T06:52:09.612Z,68.70
2019-03-30T06:54:38.934Z,65.70
2019-03-30T06:57:08.271Z,66.63
2019-03-30T06:59:37.601Z,56.90
2019-03-30T07:02:47.078Z,66.83
2019-03-30T07:05:16.427Z,59.23
2019-03-30T07:14:08.138Z,58.43
2019-03-30T07:19:27.720Z,62.43
2019-03-30T07:21:57.054Z,69.90
2019-03-30T07:24:26.379Z,59.30
2019-03-30T07:26:55.721Z,60.90
2019-03-30T07:29:25.043Z,59.70
2019-03-30T07:31:54.370Z,57.87
2019-03-30T07:34:23.709Z,71.40
2019-03-30T07:36:53.032Z,67.63
2019-03-30T07:39:22.597Z,69.93
2019-03-30T07:41:51.936Z,71.33
2019-03-30T07:44:21.258Z,65.33
2019-03-30T07:46:50.654Z,74.33
2019-03-30T07:49:19.994Z,65.17
2019-03-30T07:51:49.615Z,58.60
2019-03-30T07:54:19.178Z,62.17
2019-03-30T07:56:48.516Z,65.00
2019-03-30T07:59:17.840Z,63.20
2019-03-30T08:01:47.168Z,58.47
2019-03-30T08:04:16.506Z,60.53
2019-03-30T08:06:45.846Z,69.93
2019-03-30T08:09:15.173Z,62.93
2019-03-30T08:11:44.514Z,62.63
2019-03-30T08:14:13.835Z,55.50
2019-03-30T08:16:44.096Z,54.77
2019-03-30T08:19:27.749Z,56.03
2019-03-30T08:21:49.763Z,55.23
2019-03-30T08:24:19.430Z,62.90
2019-03-30T08:26:48.760Z,63.97
2019-03-30T08:29:18.087Z,61.63
2019-03-30T08:31:49.943Z,62.40
2019-03-30T08:34:23.754Z,73.33
2019-03-30T08:36:54.824Z,61.23
2019-03-30T08:39:24.144Z,70.73
2019-03-30T08:41:53.476Z,64.43
2019-03-30T08:44:22.839Z,54.57
2019-03-30T08:46:52.176Z,59.03
2019-03-30T08:49:21.503Z,54.23
2019-03-30T08:51:50.852Z,65.40
2019-03-30T08:54:20.179Z,56.60
2019-03-30T08:56:49.512Z,69.83
2019-03-30T08:59:18.848Z,63.60
2019-03-30T09:01:48.178Z,64.67
2019-03-30T09:04:17.583Z,54.63
2019-03-30T09:06:46.939Z,63.80
2019-03-30T09:09:16.277Z,56.30
2019-03-30T09:11:45.610Z,61.03
2019-03-30T09:14:14.955Z,64.80
2019-03-30T09:16:44.522Z,61.17
2019-03-30T09:19:13.855Z,62.00
2019-03-30T09:22:02.541Z,58.70
2019-03-30T09:24:32.127Z,76.27
2019-03-30T09:27:01.461Z,64.77
2019-03-30T09:29:43.292Z,56.77
2019-03-30T09:32:14.872Z,56.97
2019-03-30T09:34:53.019Z,51.03
2019-03-30T09:37:22.368Z,66.37
2019-03-30T09:40:03.831Z,55.83
2019-03-30T09:42:33.162Z,56.13
2019-03-30T09:45:21.843Z,57.93
2019-03-30T09:47:51.173Z,64.30
2019-03-30T09:50:39.874Z,50.10
2019-03-30T09:53:09.203Z,56.37
2019-03-30T09:55:38.537Z,54.23
2019-03-30T09:58:07.882Z,55.20
2019-03-30T10:00:37.250Z,52.57
2019-03-30T10:03:06.586Z,54.90
2019-03-30T10:05:35.939Z,60.30
2019-03-30T10:08:05.543Z,54.63
2019-03-30T10:10:34.905Z,50.80
2019-03-30T10:13:04.246Z,54.20
2019-03-30T10:15:33.575Z,59.27
2019-03-30T10:18:08.734Z,56.83
2019-03-30T10:20:38.075Z,61.40
2019-03-30T10:23:07.651Z,47.30
2019-03-30T10:25:37.435Z,59.20
2019-03-30T10:28:06.754Z,48.33
2019-03-30T10:30:36.084Z,47.10
2019-03-30T10:33:05.429Z,45.10
2019-03-30T10:35:35.068Z,53.07
2019-03-30T10:38:04.683Z,51.20
2019-03-30T10:40:34.338Z,53.33
2019-03-30T10:43:03.999Z,49.33
2019-03-30T10:45:33.353Z,47.23
2019-03-30T10:48:05.335Z,52.90
2019-03-30T10:50:34.688Z,52.40
2019-03-30T10:53:04.299Z,50.13
2019-03-30T10:55:33.838Z,50.43
2019-03-30T10:58:03.179Z,50.13
2019-03-30T11:00:51.891Z,48.73
2019-03-30T11:03:21.230Z,45.57
2019-03-30T11:05:50.554Z,47.33
2019-03-30T11:08:19.978Z,50.70
2019-03-30T11:10:49.309Z,46.20
2019-03-30T11:13:18.954Z,51.77
2019-03-30T11:15:48.569Z,37.27
2019-03-30T11:18:17.895Z,43.57
2019-03-30T11:20:47.231Z,53.17
2019-03-30T11:23:16.579Z,42.67
2019-03-30T11:25:46.172Z,51.00
2019-03-30T11:28:15.499Z,42.57
2019-03-30T11:30:44.842Z,38.73
2019-03-30T11:33:33.268Z,51.17
2019-03-30T11:36:02.613Z,47.60
2019-03-30T11:38:31.939Z,41.87
2019-03-30T11:41:01.276Z,52.87
2019-03-30T11:43:30.932Z,38.37
2019-03-30T11:46:00.260Z,42.47
2019-03-30T11:48:29.587Z,36.30
2019-03-30T11:50:58.937Z,32.97
2019-03-30T11:53:28.339Z,34.70
2019-03-30T11:55:57.636Z,37.20
2019-03-30T11:58:26.956Z,35.03
2019-03-30T12:00:56.359Z,31.90
2019-03-30T12:03:25.691Z,35.10
2019-03-30T12:05:55.037Z,31.00
2019-03-30T12:08:24.379Z,33.27
2019-03-30T12:10:53.993Z,34.57
2019-03-30T12:13:23.377Z,34.43
2019-03-30T12:15:52.963Z,35.07
2019-03-30T12:18:22.296Z,35.40
2019-03-30T12:20:51.648Z,37.30
2019-03-30T12:23:21.107Z,28.57
2019-03-30T12:25:50.576Z,38.47
2019-03-30T12:28:39.257Z,33.70
2019-03-30T12:31:08.837Z,34.83
2019-03-30T12:33:38.169Z,38.93
2019-03-30T12:36:07.639Z,32.13
2019-03-30T12:38:37.582Z,31.20
2019-03-30T12:41:07.534Z,41.33
2019-03-30T12:43:39.093Z,31.43
2019-03-30T12:46:27.694Z,31.00
2019-03-30T12:48:57.045Z,32.73
2019-03-30T12:51:26.367Z,33.60
2019-03-30T12:53:55.698Z,33.37
2019-03-30T12:56:25.043Z,34.10
2019-03-30T12:58:54.376Z,38.47
2019-03-30T13:01:23.708Z,36.27
2019-03-30T13:03:53.053Z,39.43
2019-03-30T13:06:22.387Z,31.73
2019-03-30T13:08:51.735Z,35.20
2019-03-30T13:11:21.079Z,38.80
2019-03-30T13:13:50.411Z,34.37
2019-03-30T13:16:19.812Z,41.93
2019-03-30T13:18:49.155Z,37.23
2019-03-30T13:21:18.487Z,34.27
2019-03-30T13:23:47.820Z,39.27
2019-03-30T13:26:17.166Z,35.27
2019-03-30T13:28:46.496Z,39.93
2019-03-30T13:31:15.830Z,37.20
2019-03-30T13:33:45.171Z,38.87
2019-03-30T13:39:22.334Z,32.13
2019-03-30T13:41:51.662Z,41.53
2019-03-30T13:44:21.328Z,32.77
2019-03-30T13:46:50.927Z,38.13
2019-03-30T13:49:20.535Z,35.03
2019-03-30T13:51:49.877Z,41.50
2019-03-30T13:54:19.547Z,36.83
2019-03-30T13:56:48.891Z,35.33
2019-03-30T13:59:18.223Z,33.03
2019-03-30T14:01:47.555Z,34.60
2019-03-30T14:04:16.900Z,33.83
2019-03-30T14:06:46.225Z,28.83
2019-03-30T14:09:22.135Z,37.23
2019-03-30T14:11:58.111Z,36.33
2019-03-30T14:14:27.444Z,31.60
2019-03-30T14:16:56.776Z,37.47
2019-03-30T14:19:26.131Z,37.23
2019-03-30T14:21:55.456Z,39.27
2019-03-30T14:24:24.787Z,41.33
2019-03-30T14:26:54.127Z,34.27
2019-03-30T14:29:23.455Z,35.23
2019-03-30T14:31:52.788Z,41.67
2019-03-30T14:34:22.131Z,34.40
2019-03-30T14:36:51.461Z,30.80
2019-03-30T14:39:20.790Z,35.87
2019-03-30T14:41:50.140Z,30.97
2019-03-30T14:44:19.462Z,39.30
2019-03-30T14:46:48.795Z,36.97
2019-03-30T14:49:18.145Z,36.33
2019-03-30T14:51:47.474Z,34.73
2019-03-30T14:54:16.805Z,32.23
2019-03-30T14:56:46.453Z,36.40
2019-03-30T14:59:22.308Z,38.53
2019-03-30T15:01:51.724Z,36.60
2019-03-30T15:04:21.055Z,43.80
2019-03-30T15:06:50.398Z,34.67
2019-03-30T15:09:25.553Z,30.03
2019-03-30T15:12:07.163Z,32.27
2019-03-30T15:14:36.505Z,34.37
2019-03-30T15:17:05.831Z,33.07
2019-03-30T15:19:35.173Z,36.30
2019-03-30T15:22:04.511Z,42.47
2019-03-30T15:24:33.842Z,39.27
2019-03-30T15:27:03.492Z,42.23
2019-03-30T15:29:32.838Z,36.53
2019-03-30T15:32:02.170Z,38.47
2019-03-30T15:34:31.706Z,38.47
2019-03-30T15:37:01.008Z,35.40
2019-03-30T15:39:30.336Z,32.23
2019-03-30T15:42:01.448Z,32.57
2019-03-30T15:44:30.715Z,35.87
2019-03-30T15:47:00.214Z,32.60
2019-03-30T15:49:29.854Z,33.43
2019-03-30T15:52:13.045Z,32.77
2019-03-30T15:57:50.667Z,46.80
2019-03-30T16:00:19.999Z,33.43
2019-03-30T16:02:49.339Z,38.20
2019-03-30T16:05:18.833Z,38.27
2019-03-30T16:07:48.172Z,33.03
2019-03-30T16:10:17.704Z,30.67
2019-03-30T16:12:47.057Z,31.60
2019-03-30T16:15:16.403Z,29.20
2019-03-30T16:17:45.743Z,32.30
2019-03-30T16:23:36.424Z,35.10
2019-03-30T16:26:05.762Z,36.20
2019-03-30T16:28:35.107Z,36.47
2019-03-30T16:31:04.526Z,36.23
2019-03-30T16:33:33.933Z,38.67
2019-03-30T16:36:03.277Z,31.77
2019-03-30T16:38:32.689Z,33.90
2019-03-30T16:41:14.589Z,37.70
2019-03-30T16:43:43.955Z,38.20
2019-03-30T16:46:13.291Z,29.30
2019-03-30T16:48:42.628Z,34.70
2019-03-30T16:51:11.976Z,30.60
2019-03-30T16:53:41.313Z,33.10
2019-03-30T16:56:10.636Z,32.03
2019-03-30T16:58:40.111Z,29.23
2019-03-30T17:01:28.781Z,30.53
2019-03-30T17:03:58.127Z,33.80
2019-03-30T17:06:27.531Z,25.83
2019-03-30T17:08:56.858Z,30.13
2019-03-30T17:11:26.578Z,37.63
2019-03-30T17:13:55.902Z,35.90
2019-03-30T17:16:25.236Z,43.87
2019-03-30T17:18:54.580Z,41.33
2019-03-30T17:21:23.906Z,34.50
2019-03-30T17:23:53.494Z,34.10
2019-03-30T17:26:22.884Z,37.07
2019-03-30T17:28:52.451Z,35.13
2019-03-30T17:31:21.776Z,40.57
2019-03-30T17:33:51.120Z,36.10
2019-03-30T17:36:20.450Z,41.03
2019-03-30T17:38:49.779Z,41.07
2019-03-30T17:41:19.191Z,35.30
2019-03-30T17:43:48.688Z,47.87
2019-03-30T17:46:18.137Z,37.43
2019-03-30T17:48:47.746Z,38.20
2019-03-30T17:51:17.084Z,37.50
2019-03-30T17:53:46.475Z,51.47
2019-03-30T17:56:27.753Z,69.70
2019-03-30T17:58:57.088Z,60.10
2019-03-30T18:01:26.738Z,72.37
2019-03-30T18:03:56.361Z,49.50
2019-03-30T18:06:25.687Z,42.93
2019-03-30T18:08:55.031Z,40.10
2019-03-30T18:11:24.372Z,54.30
2019-03-30T18:13:54.065Z,40.13
2019-03-30T18:16:23.403Z,48.53
2019-03-30T18:18:52.733Z,54.37
2019-03-30T18:21:41.407Z,37.80
2019-03-30T18:24:10.738Z,54.07
2019-03-30T18:26:40.074Z,44.27
2019-03-30T18:29:09.418Z,44.60
2019-03-30T18:32:24.566Z,47.90
2019-03-30T18:34:53.972Z,48.63
2019-03-30T18:37:34.357Z,52.30
2019-03-30T18:43:35.090Z,58.10
2019-03-30T18:46:23.758Z,57.47
2019-03-30T18:48:53.103Z,54.67
2019-03-30T18:51:42.243Z,52.70
2019-03-30T18:57:32.522Z,69.57
2019-03-30T19:00:01.860Z,69.47
2019-03-30T19:02:43.255Z,70.43
2019-03-30T19:05:12.595Z,70.73
2019-03-30T19:07:41.938Z,71.33
2019-03-30T19:10:23.761Z,68.63
2019-03-30T19:12:53.068Z,51.80
2019-03-30T19:15:22.424Z,56.03
2019-03-30T19:18:03.695Z,61.43
2019-03-30T19:20:33.039Z,59.93
2019-03-30T19:23:02.371Z,62.60
2019-03-30T19:25:43.483Z,68.60
2019-03-30T19:28:12.816Z,57.17
2019-03-30T19:31:01.496Z,55.87
2019-03-30T19:33:43.379Z,52.03
2019-03-30T19:36:12.727Z,61.40
2019-03-30T19:39:01.398Z,55.00
2019-03-30T19:41:30.749Z,57.33
2019-03-30T19:44:00.078Z,74.57
2019-03-30T19:46:29.406Z,55.93
2019-03-30T19:49:18.090Z,80.37
2019-03-30T19:51:47.418Z,59.07
2019-03-30T19:54:16.757Z,65.50
2019-03-30T19:56:46.168Z,55.43
2019-03-30T19:59:15.499Z,57.80
2019-03-30T20:01:44.899Z,60.67
2019-03-30T20:04:14.230Z,62.63
2019-03-30T20:06:43.575Z,53.13
2019-03-30T20:09:24.799Z,51.67
2019-03-30T20:11:54.137Z,59.83
2019-03-30T20:14:23.469Z,64.40
2019-03-30T20:17:05.508Z,58.60
2019-03-30T20:19:34.838Z,53.70
2019-03-30T20:22:04.255Z,59.73
2019-03-30T20:27:28.759Z,65.33
2019-03-30T20:29:58.102Z,75.10
2019-03-30T20:32:27.432Z,68.57
2019-03-30T20:35:15.897Z,51.43
2019-03-30T20:37:45.240Z,64.47
2019-03-30T20:40:14.644Z,79.90
2019-03-30T20:42:56.652Z,227.13
2019-03-30T20:48:26.968Z,247.00
2019-03-30T20:50:56.310Z,220.07
2019-03-30T20:53:25.657Z,147.83
2019-03-30T20:55:54.992Z,134.67
2019-03-30T20:58:24.335Z,112.77
2019-03-30T21:00:53.675Z,81.57
2019-03-30T21:03:23.006Z,88.57
2019-03-30T21:05:52.374Z,95.17
2019-03-30T21:08:40.801Z,88.87
2019-03-30T21:11:10.139Z,68.77
2019-03-30T21:13:39.493Z,64.00
2019-03-30T21:16:08.828Z,74.03
2019-03-30T21:18:43.353Z,73.30
2019-03-30T21:21:12.686Z,69.97
2019-03-30T21:23:42.023Z,76.00
2019-03-30T21:26:11.359Z,59.37
2019-03-30T21:28:59.799Z,58.93
2019-03-30T21:31:29.123Z,67.50
2019-03-30T21:33:58.455Z,66.43
2019-03-30T21:36:27.795Z,60.63
2019-03-30T21:38:57.125Z,62.00
2019-03-30T21:41:26.472Z,63.07
2019-03-30T21:43:55.873Z,60.47
2019-03-30T21:46:25.203Z,64.60
2019-03-30T21:48:54.542Z,61.73
2019-03-30T21:51:23.874Z,72.30
2019-03-30T21:54:12.308Z,61.17
2019-03-30T21:56:41.645Z,61.73
2019-03-30T21:59:10.975Z,64.20
2019-03-30T22:01:40.575Z,65.17
2019-03-30T22:04:09.905Z,65.23
2019-03-30T22:06:39.236Z,64.33
2019-03-30T22:09:20.101Z,64.07
2019-03-30T22:11:49.429Z,62.10
2019-03-30T22:14:18.794Z,63.30
2019-03-30T22:16:48.131Z,68.97
2019-03-30T22:19:22.727Z,61.53
2019-03-30T22:21:52.043Z,80.53
2019-03-30T22:24:21.687Z,65.70
2019-03-30T22:26:51.029Z,64.57
2019-03-30T22:29:20.352Z,63.50
2019-03-30T22:32:08.786Z,77.70
2019-03-30T22:34:38.120Z,76.60
2019-03-30T22:37:07.442Z,74.33
2019-03-30T22:39:36.777Z,68.43
2019-03-30T22:42:06.106Z,79.63
2019-03-30T22:44:35.514Z,63.37
2019-03-30T22:47:04.913Z,71.00
2019-03-30T22:49:34.239Z,67.67
2019-03-30T22:52:03.576Z,70.50
2019-03-30T22:54:32.899Z,76.27
2019-03-30T22:57:02.235Z,71.50
2019-03-30T22:59:31.558Z,82.10
2019-03-30T23:02:00.890Z,75.23
2019-03-30T23:04:49.865Z,69.40
2019-03-30T23:07:19.182Z,74.47
2019-03-30T23:09:48.517Z,74.20
2019-03-30T23:12:17.845Z,94.23
2019-03-30T23:15:06.694Z,71.67
2019-03-30T23:17:36.043Z,67.30
2019-03-30T23:23:07.279Z,116.23
2019-03-30T23:25:48.793Z,94.57
2019-03-30T23:28:18.133Z,101.10
2019-03-30T23:30:54.137Z,142.33
2019-03-30T23:33:24.272Z,123.23
2019-03-30T23:35:54.013Z,101.13
2019-03-30T23:38:23.308Z,86.53
2019-03-30T23:40:52.637Z,102.90
2019-03-30T23:43:21.967Z,102.43
2019-03-30T23:45:51.301Z,68.97
2019-03-30T23:48:27.881Z,72.90
2019-03-30T23:50:57.215Z,74.93
2019-03-30T23:53:26.534Z,71.57
2019-03-30T23:55:55.859Z,63.57
2019-03-30T23:58:25.198Z,68.33
